createdAt,value
2022-12-09T00:02:19.034Z,13.72
2022-12-09T00:04:45.985Z,13.69
2022-12-09T00:07:12.787Z,13.66
2022-12-09T00:09:39.371Z,13.66
2022-12-09T00:12:06.128Z,13.64
2022-12-09T00:14:32.782Z,13.60
2022-12-09T00:16:59.675Z,13.59
2022-12-09T00:19:26.756Z,13.58
2022-12-09T00:21:53.417Z,13.55
2022-12-09T00:24:20.027Z,13.53
2022-12-09T00:26:46.954Z,13.52
2022-12-09T00:29:13.711Z,13.42
2022-12-09T00:31:40.373Z,13.40
2022-12-09T00:34:10.406Z,13.34
2022-12-09T00:36:38.343Z,13.29
2022-12-09T00:39:05.328Z,13.32
2022-12-09T00:41:32.069Z,13.29
2022-12-09T00:43:59.430Z,13.28
2022-12-09T00:46:26.832Z,13.25
2022-12-09T00:48:53.779Z,13.20
2022-12-09T00:51:23.157Z,13.18
2022-12-09T00:53:55.944Z,13.15
2022-12-09T00:56:25.439Z,12.86
2022-12-09T00:58:52.740Z,12.46
2022-12-09T01:01:20.316Z,12.21
2022-12-09T01:03:47.193Z,12.25
2022-12-09T01:06:19.325Z,12.25
2022-12-09T01:08:47.100Z,12.47
2022-12-09T01:11:27.141Z,12.30
2022-12-09T01:13:57.680Z,12.22
2022-12-09T01:16:27.544Z,11.82
2022-12-09T01:18:57.334Z,11.67
2022-12-09T01:21:24.592Z,12.06
2022-12-09T01:23:51.506Z,11.76
2022-12-09T01:26:18.084Z,12.23
2022-12-09T01:28:44.975Z,12.44
2022-12-09T01:31:17.853Z,12.58
2022-12-09T01:33:45.319Z,12.77
2022-12-09T01:36:18.877Z,12.91
2022-12-09T01:38:47.387Z,12.99
2022-12-09T01:41:16.564Z,13.06
2022-12-09T01:43:44.044Z,13.09
2022-12-09T01:46:11.404Z,13.20
2022-12-09T01:48:42.286Z,13.42
2022-12-09T01:51:19.870Z,13.56
2022-12-09T01:53:49.640Z,13.21
2022-12-09T01:56:37.298Z,13.12
2022-12-09T01:59:12.864Z,13.38
2022-12-09T02:01:41.119Z,13.50
2022-12-09T02:04:08.016Z,13.52
2022-12-09T02:06:39.170Z,13.53
2022-12-09T02:09:09.531Z,13.53
2022-12-09T02:11:48.215Z,13.33
2022-12-09T02:14:42.990Z,13.39
2022-12-09T02:17:36.307Z,13.35
2022-12-09T02:20:16.148Z,13.40
2022-12-09T02:22:47.610Z,13.37
2022-12-09T02:25:30.875Z,13.44
2022-12-09T02:28:19.390Z,13.50
2022-12-09T02:31:02.337Z,13.51
2022-12-09T02:34:09.751Z,13.54
2022-12-09T02:37:00.366Z,13.57
2022-12-09T02:39:47.884Z,13.57
2022-12-09T02:42:18.721Z,13.38
2022-12-09T02:44:50.658Z,13.14
2022-12-09T02:47:24.476Z,12.78
2022-12-09T02:49:56.183Z,13.10
2022-12-09T02:52:24.280Z,13.31
2022-12-09T02:54:52.589Z,13.40
2022-12-09T02:57:24.636Z,13.38
2022-12-09T02:59:52.014Z,13.14
2022-12-09T03:02:26.336Z,12.86
2022-12-09T03:05:29.836Z,12.61
2022-12-09T03:08:12.063Z,12.49
2022-12-09T03:11:00.477Z,12.52
2022-12-09T03:14:04.385Z,12.41
2022-12-09T03:16:43.540Z,10.87
2022-12-09T03:19:23.448Z,10.42
2022-12-09T03:21:54.027Z,10.23
2022-12-09T03:24:24.916Z,10.34
2022-12-09T03:26:53.784Z,10.36
2022-12-09T03:29:25.601Z,10.43
2022-12-09T03:31:56.275Z,10.11
2022-12-09T03:34:29.720Z,9.08
2022-12-09T03:36:58.452Z,8.64
2022-12-09T03:39:30.135Z,9.28
2022-12-09T03:42:01.883Z,9.69
2022-12-09T03:44:44.643Z,9.62
2022-12-09T03:47:12.116Z,9.00
2022-12-09T03:49:39.751Z,9.31
2022-12-09T03:52:13.718Z,9.44
2022-12-09T03:54:46.115Z,9.52
2022-12-09T03:57:19.072Z,9.58
2022-12-09T03:59:58.692Z,9.49
2022-12-09T04:02:26.421Z,9.46
2022-12-09T04:07:22.831Z,9.47
2022-12-09T04:09:49.453Z,9.08
2022-12-09T04:12:16.451Z,9.19
2022-12-09T04:14:43.266Z,9.00
2022-12-09T04:17:11.921Z,9.12
2022-12-09T04:19:38.859Z,9.67
2022-12-09T04:22:05.549Z,9.52
2022-12-09T04:24:32.369Z,9.60
2022-12-09T04:26:58.901Z,9.84
2022-12-09T04:29:25.488Z,9.95
2022-12-09T04:31:52.442Z,10.04
2022-12-09T04:34:19.237Z,9.85
2022-12-09T04:36:46.158Z,10.02
2022-12-09T04:39:12.734Z,9.96
2022-12-09T04:41:39.292Z,10.02
2022-12-09T04:44:06.537Z,10.08
2022-12-09T04:46:33.306Z,9.85
2022-12-09T04:49:00.048Z,9.58
2022-12-09T04:51:26.976Z,9.98
2022-12-09T04:53:53.852Z,10.12
2022-12-09T04:56:21.502Z,10.20
2022-12-09T04:58:49.968Z,10.02
2022-12-09T05:01:28.170Z,10.54
2022-12-09T05:03:57.653Z,10.75
2022-12-09T05:06:24.725Z,10.80
2022-12-09T05:08:52.189Z,10.85
2022-12-09T05:11:20.931Z,10.95
2022-12-09T05:13:47.975Z,11.05
2022-12-09T05:16:17.440Z,10.54
2022-12-09T05:18:46.583Z,10.65
2022-12-09T05:21:16.767Z,10.57
2022-12-09T05:23:44.353Z,10.43
2022-12-09T05:26:15.244Z,10.46
2022-12-09T05:28:42.488Z,10.80
2022-12-09T05:31:14.844Z,10.68
2022-12-09T05:33:42.292Z,10.88
2022-12-09T05:36:11.704Z,10.70
2022-12-09T05:38:39.201Z,10.91
2022-12-09T05:41:06.022Z,11.02
2022-12-09T05:43:34.039Z,11.30
2022-12-09T05:46:01.254Z,11.24
2022-12-09T05:48:28.663Z,10.78
2022-12-09T05:50:58.269Z,10.93
2022-12-09T05:53:25.356Z,10.74
2022-12-09T05:55:52.552Z,11.29
2022-12-09T05:58:21.107Z,11.37
2022-12-09T06:00:48.513Z,11.36
2022-12-09T06:03:16.217Z,11.29
2022-12-09T06:05:44.428Z,11.06
2022-12-09T06:08:11.957Z,11.14
2022-12-09T06:10:40.640Z,10.94
2022-12-09T06:13:07.887Z,11.02
2022-12-09T06:15:35.152Z,10.94
2022-12-09T06:18:02.357Z,11.09
2022-12-09T06:20:29.820Z,11.07
2022-12-09T06:22:56.979Z,11.19
2022-12-09T06:25:23.963Z,11.26
2022-12-09T06:27:52.723Z,11.32
2022-12-09T06:30:19.732Z,11.18
2022-12-09T06:32:46.784Z,11.04
2022-12-09T06:35:13.969Z,11.12
2022-12-09T06:37:41.665Z,10.85
2022-12-09T06:40:09.420Z,11.18
2022-12-09T06:42:36.338Z,10.92
2022-12-09T06:45:04.017Z,10.66
2022-12-09T06:47:31.299Z,10.72
2022-12-09T06:50:06.560Z,10.75
2022-12-09T06:52:34.805Z,10.89
2022-12-09T06:55:02.201Z,10.63
2022-12-09T06:57:29.444Z,10.82
2022-12-09T06:59:56.441Z,11.00
2022-12-09T07:02:23.854Z,10.96
2022-12-09T07:04:54.795Z,10.89
2022-12-09T07:07:22.610Z,10.99
2022-12-09T07:09:49.546Z,11.10
2022-12-09T07:12:16.585Z,11.08
2022-12-09T07:14:43.762Z,11.05
2022-12-09T07:17:16.974Z,10.96
2022-12-09T07:19:45.261Z,10.93
2022-12-09T07:22:13.428Z,10.95
2022-12-09T07:24:40.762Z,10.94
2022-12-09T07:27:13.008Z,10.89
2022-12-09T07:29:42.632Z,10.95
2022-12-09T07:32:10.841Z,10.84
2022-12-09T07:34:40.645Z,10.72
2022-12-09T07:37:07.298Z,10.79
2022-12-09T07:39:34.191Z,10.66
2022-12-09T07:42:00.882Z,10.77
2022-12-09T07:44:30.419Z,9.94
2022-12-09T07:46:57.513Z,9.41
2022-12-09T07:49:24.910Z,9.31
2022-12-09T07:51:52.150Z,9.38
2022-12-09T07:54:20.472Z,9.58
2022-12-09T07:56:48.149Z,9.67
2022-12-09T07:59:16.182Z,9.81
2022-12-09T08:01:43.847Z,9.97
2022-12-09T08:04:11.158Z,9.42
2022-12-09T08:06:39.123Z,9.23
2022-12-09T08:09:10.689Z,9.48
2022-12-09T08:11:38.536Z,8.75
2022-12-09T08:14:12.307Z,8.58
2022-12-09T08:16:41.979Z,8.76
2022-12-09T08:19:10.310Z,8.19
2022-12-09T08:21:38.297Z,8.10
2022-12-09T08:24:07.740Z,8.37
2022-12-09T08:26:37.614Z,8.56
2022-12-09T08:29:12.303Z,8.94
2022-12-09T08:31:42.378Z,8.41
2022-12-09T08:34:10.000Z,8.99
2022-12-09T08:36:37.201Z,9.49
2022-12-09T08:39:05.073Z,9.79
2022-12-09T08:41:36.364Z,10.14
2022-12-09T08:44:11.418Z,10.11
2022-12-09T08:46:40.123Z,10.16
2022-12-09T08:49:07.562Z,9.90
2022-12-09T08:51:35.842Z,9.87
2022-12-09T08:54:04.245Z,10.58
2022-12-09T08:56:31.389Z,11.01
2022-12-09T08:58:58.781Z,11.81
2022-12-09T09:01:32.680Z,12.71
2022-12-09T09:04:06.864Z,13.49
2022-12-09T09:06:35.164Z,13.92
2022-12-09T09:09:02.503Z,14.65
2022-12-09T09:11:29.871Z,15.02
2022-12-09T09:13:56.965Z,15.73
2022-12-09T09:16:26.382Z,16.18
2022-12-09T09:18:53.498Z,16.46
2022-12-09T09:21:24.266Z,16.97
2022-12-09T09:23:51.182Z,17.44
2022-12-09T09:26:24.621Z,17.52
2022-12-09T09:28:52.397Z,17.52
2022-12-09T09:31:21.620Z,17.39
2022-12-09T09:33:49.958Z,17.29
2022-12-09T09:36:22.758Z,17.18
2022-12-09T09:38:51.487Z,17.96
2022-12-09T09:42:08.782Z,17.87
2022-12-09T09:44:45.482Z,17.17
2022-12-09T09:47:19.872Z,17.61
2022-12-09T09:49:57.978Z,17.07
2022-12-09T09:52:27.475Z,16.40
2022-12-09T09:54:56.271Z,16.14
2022-12-09T09:57:32.679Z,16.22
2022-12-09T10:00:09.363Z,16.27
2022-12-09T10:03:10.893Z,14.85
2022-12-09T10:05:53.057Z,14.55
2022-12-09T10:08:43.582Z,14.60
2022-12-09T10:11:30.612Z,13.65
2022-12-09T10:14:22.570Z,13.54
2022-12-09T10:16:59.426Z,13.36
2022-12-09T10:19:35.290Z,13.07
2022-12-09T10:22:18.207Z,13.28
2022-12-09T10:24:52.516Z,13.72
2022-12-09T10:27:35.833Z,13.85
2022-12-09T10:30:15.834Z,14.11
2022-12-09T10:32:43.249Z,13.91
2022-12-09T10:35:19.889Z,13.21
2022-12-09T10:37:49.871Z,14.13
2022-12-09T10:40:38.218Z,14.78
2022-12-09T10:43:37.495Z,15.59
2022-12-09T10:46:23.188Z,15.87
2022-12-09T10:48:50.497Z,16.44
2022-12-09T10:51:36.398Z,16.23
2022-12-09T10:54:09.694Z,16.00
2022-12-09T10:56:38.704Z,15.29
2022-12-09T10:59:22.573Z,15.74
2022-12-09T11:01:55.950Z,15.29
2022-12-09T11:04:26.427Z,15.23
2022-12-09T11:07:00.215Z,14.59
2022-12-09T11:09:32.115Z,14.29
2022-12-09T11:12:01.181Z,13.55
2022-12-09T11:14:35.854Z,13.53
2022-12-09T11:17:16.725Z,12.85
2022-12-09T11:19:47.966Z,13.11
2022-12-09T11:22:39.910Z,13.39
2022-12-09T11:25:22.958Z,13.33
2022-12-09T11:27:57.757Z,13.61
2022-12-09T11:31:27.610Z,12.95
2022-12-09T11:33:53.346Z,12.40
2022-12-09T11:36:29.917Z,12.76
2022-12-09T11:39:19.555Z,12.82
2022-12-09T11:42:16.544Z,12.91
2022-12-09T11:44:59.085Z,13.14
2022-12-09T11:50:32.611Z,12.23
2022-12-09T11:53:12.053Z,11.67
2022-12-09T11:55:46.331Z,11.75
2022-12-09T11:58:22.367Z,11.80
2022-12-09T12:01:05.473Z,12.04
2022-12-09T12:03:39.560Z,12.15
2022-12-09T12:06:15.062Z,12.78
2022-12-09T12:08:51.454Z,12.26
2022-12-09T12:11:28.839Z,12.45
2022-12-09T12:14:12.763Z,12.96
2022-12-09T12:17:04.406Z,12.45
2022-12-09T12:19:38.671Z,12.29
2022-12-09T12:22:07.957Z,12.42
2022-12-09T12:24:53.629Z,12.50
2022-12-09T12:27:50.716Z,12.30
2022-12-09T12:30:20.775Z,11.25
2022-12-09T12:36:24.501Z,11.43
2022-12-09T12:39:16.190Z,12.15
2022-12-09T12:42:09.760Z,11.56
2022-12-09T12:45:08.964Z,11.35
2022-12-09T12:47:46.865Z,11.70
2022-12-09T12:50:25.147Z,11.90
2022-12-09T12:53:16.730Z,12.28
2022-12-09T12:55:49.243Z,12.22
2022-12-09T12:58:33.855Z,12.51
2022-12-09T13:01:06.615Z,11.81
2022-12-09T13:03:54.826Z,12.34
2022-12-09T13:06:36.861Z,13.09
2022-12-09T13:09:11.539Z,12.96
2022-12-09T13:12:00.246Z,12.53
2022-12-09T13:14:34.048Z,12.18
2022-12-09T13:17:05.184Z,12.51
2022-12-09T13:19:40.150Z,12.34
2022-12-09T13:22:19.287Z,12.52
2022-12-09T13:24:56.836Z,13.08
2022-12-09T13:27:31.449Z,13.30
2022-12-09T13:30:02.984Z,12.99
2022-12-09T13:32:33.395Z,12.66
2022-12-09T13:35:24.639Z,12.27
2022-12-09T13:37:52.349Z,12.69
2022-12-09T13:40:24.820Z,12.40
2022-12-09T13:43:16.633Z,12.64
2022-12-09T13:45:43.277Z,12.69
2022-12-09T13:48:16.821Z,12.54
2022-12-09T13:51:00.199Z,12.13
2022-12-09T13:53:33.904Z,12.51
2022-12-09T13:56:03.324Z,12.52
2022-12-09T13:58:46.916Z,12.65
2022-12-09T14:01:29.797Z,12.66
2022-12-09T14:04:14.680Z,12.87
2022-12-09T14:06:41.181Z,12.68
2022-12-09T14:09:35.126Z,12.72
2022-12-09T14:12:26.345Z,12.51
2022-12-09T14:14:58.504Z,12.43
2022-12-09T14:17:25.631Z,12.46
2022-12-09T14:20:28.218Z,12.64
2022-12-09T14:23:07.434Z,12.60
2022-12-09T14:25:34.000Z,12.47
2022-12-09T14:28:10.152Z,12.58
2022-12-09T14:31:03.441Z,12.55
2022-12-09T14:33:43.096Z,12.57
2022-12-09T14:36:15.578Z,12.53
2022-12-09T14:39:26.603Z,12.23
2022-12-09T14:42:05.533Z,12.27
2022-12-09T14:44:40.008Z,13.06
2022-12-09T14:47:25.010Z,12.25
2022-12-09T14:49:53.953Z,11.31
2022-12-09T14:52:28.929Z,11.70
2022-12-09T14:54:59.103Z,11.84
2022-12-09T14:57:34.344Z,11.43
2022-12-09T15:00:01.452Z,11.74
2022-12-09T15:02:30.500Z,11.64
2022-12-09T15:05:00.096Z,11.46
2022-12-09T15:07:31.632Z,11.75
2022-12-09T15:10:07.514Z,11.45
2022-12-09T15:12:43.907Z,11.38
2022-12-09T15:15:10.586Z,11.33
2022-12-09T15:17:43.347Z,11.34
2022-12-09T15:20:38.292Z,11.40
2022-12-09T15:23:18.829Z,11.15
2022-12-09T15:25:51.490Z,10.91
2022-12-09T15:28:26.249Z,11.48
2022-12-09T15:31:02.010Z,11.35
2022-12-09T15:33:32.267Z,11.27
2022-12-09T15:36:03.462Z,11.57
2022-12-09T15:38:42.352Z,11.78
2022-12-09T15:41:28.765Z,11.77
2022-12-09T15:44:00.513Z,11.86
2022-12-09T15:46:28.666Z,11.85
2022-12-09T15:48:58.595Z,11.82
2022-12-09T15:51:28.256Z,11.91
2022-12-09T15:54:02.218Z,11.98
2022-12-09T15:56:38.165Z,11.81
2022-12-09T15:59:13.649Z,11.47
2022-12-09T16:01:46.858Z,11.58
2022-12-09T16:04:18.657Z,11.53
2022-12-09T16:06:45.825Z,10.85
2022-12-09T16:09:15.068Z,11.13
2022-12-09T16:11:49.973Z,11.42
2022-12-09T16:14:18.340Z,11.57
2022-12-09T16:17:02.735Z,11.34
2022-12-09T16:19:41.141Z,10.96
2022-12-09T16:22:11.043Z,10.39
2022-12-09T16:25:14.534Z,10.32
2022-12-09T16:27:37.173Z,10.52
2022-12-09T16:30:12.712Z,10.78
2022-12-09T16:32:47.494Z,10.89
2022-12-09T16:35:17.129Z,11.01
2022-12-09T16:37:55.636Z,11.17
2022-12-09T16:40:23.328Z,11.04
2022-12-09T16:42:52.615Z,11.16
2022-12-09T16:45:38.574Z,11.35
2022-12-09T16:48:05.511Z,10.95
2022-12-09T16:50:56.114Z,11.11
2022-12-09T16:53:33.703Z,11.04
2022-12-09T16:56:02.762Z,10.98
2022-12-09T16:58:32.770Z,11.18
2022-12-09T17:01:01.166Z,11.06
2022-12-09T17:03:38.072Z,10.98
2022-12-09T17:06:05.905Z,10.30
2022-12-09T17:08:32.586Z,9.57
2022-12-09T17:11:00.408Z,9.41
2022-12-09T17:13:27.737Z,9.54
2022-12-09T17:15:58.331Z,9.27
2022-12-09T17:18:26.156Z,9.21
2022-12-09T17:21:04.862Z,9.39
2022-12-09T17:23:39.121Z,9.19
2022-12-09T17:26:09.407Z,9.57
2022-12-09T17:28:37.234Z,9.45
2022-12-09T17:31:09.611Z,10.04
2022-12-09T17:33:36.412Z,9.96
2022-12-09T17:36:03.075Z,9.82
2022-12-09T17:38:29.708Z,9.61
2022-12-09T17:40:57.229Z,8.90
2022-12-09T17:43:25.117Z,8.56
2022-12-09T17:45:52.242Z,7.97
2022-12-09T17:48:18.865Z,8.05
2022-12-09T17:50:45.427Z,8.13
2022-12-09T17:53:12.477Z,8.59
2022-12-09T17:55:39.139Z,8.88
2022-12-09T17:58:05.762Z,8.99
2022-12-09T18:00:33.742Z,9.52
2022-12-09T18:03:01.345Z,9.41
2022-12-09T18:05:28.297Z,9.19
2022-12-09T18:07:54.884Z,9.05
2022-12-09T18:10:21.684Z,9.06
2022-12-09T18:12:48.219Z,9.43
2022-12-09T18:15:14.887Z,9.48
2022-12-09T18:17:41.471Z,9.09
2022-12-09T18:20:08.863Z,8.98
2022-12-09T18:22:35.694Z,8.85
2022-12-09T18:25:02.421Z,9.20
2022-12-09T18:27:29.849Z,9.52
2022-12-09T18:29:56.467Z,10.00
2022-12-09T18:32:23.242Z,10.29
2022-12-09T18:34:50.989Z,10.08
2022-12-09T18:37:19.517Z,10.07
2022-12-09T18:39:46.032Z,10.25
2022-12-09T18:42:12.599Z,10.25
2022-12-09T18:44:39.152Z,10.40
2022-12-09T18:47:05.655Z,10.68
2022-12-09T18:49:32.361Z,10.95
2022-12-09T18:51:58.992Z,10.96
2022-12-09T18:54:28.352Z,11.11
2022-12-09T18:56:56.197Z,11.24
2022-12-09T18:59:25.005Z,11.34
2022-12-09T19:01:52.607Z,10.83
2022-12-09T19:04:22.455Z,10.88
2022-12-09T19:06:50.974Z,11.02
2022-12-09T19:09:22.764Z,10.93
2022-12-09T19:11:50.923Z,10.97
2022-12-09T19:14:20.303Z,11.78
2022-12-09T19:16:47.535Z,12.27
2022-12-09T19:19:16.646Z,12.00
2022-12-09T19:21:43.577Z,11.91
2022-12-09T19:24:18.343Z,11.39
2022-12-09T19:26:45.240Z,11.60
2022-12-09T19:29:12.970Z,11.68
2022-12-09T19:31:42.898Z,12.02
2022-12-09T19:34:15.733Z,11.69
2022-12-09T19:36:43.552Z,11.63
2022-12-09T19:39:12.650Z,11.82
2022-12-09T19:41:40.442Z,11.78
2022-12-09T19:44:08.493Z,11.84
2022-12-09T19:46:35.527Z,12.19
2022-12-09T19:49:03.038Z,11.91
2022-12-09T19:51:30.313Z,11.65
2022-12-09T19:53:59.081Z,12.18
2022-12-09T19:56:26.397Z,12.39
2022-12-09T19:58:54.261Z,12.15
2022-12-09T20:01:47.114Z,12.32
2022-12-09T20:04:46.854Z,12.29
2022-12-09T20:07:07.677Z,12.02
2022-12-09T20:09:35.276Z,11.98
2022-12-09T20:12:01.833Z,12.12
2022-12-09T20:14:28.409Z,11.98
2022-12-09T20:16:55.108Z,12.32
2022-12-09T20:19:22.307Z,12.33
2022-12-09T20:21:48.887Z,11.95
2022-12-09T20:24:15.463Z,11.73
2022-12-09T20:26:42.079Z,11.41
2022-12-09T20:29:10.662Z,11.16
2022-12-09T20:31:39.185Z,11.69
2022-12-09T20:34:08.561Z,11.39
2022-12-09T20:36:37.054Z,11.72
2022-12-09T20:39:13.028Z,12.08
2022-12-09T20:41:41.619Z,11.97
2022-12-09T20:44:10.122Z,12.14
2022-12-09T20:46:36.752Z,12.13
2022-12-09T20:49:03.382Z,12.00
2022-12-09T20:51:38.523Z,12.27
2022-12-09T20:54:07.378Z,12.38
2022-12-09T20:56:35.645Z,12.56
2022-12-09T20:59:03.154Z,12.56
2022-12-09T21:01:32.451Z,12.85
2022-12-09T21:04:00.727Z,12.79
2022-12-09T21:06:31.427Z,12.96
2022-12-09T21:09:03.381Z,13.18
2022-12-09T21:11:30.276Z,13.28
2022-12-09T21:13:59.425Z,13.40
2022-12-09T21:16:29.066Z,13.38
2022-12-09T21:18:58.163Z,13.31
2022-12-09T21:21:26.861Z,13.45
2022-12-09T21:23:54.536Z,13.23
2022-12-09T21:26:22.903Z,13.36
2022-12-09T21:28:50.796Z,13.21
2022-12-09T21:31:23.436Z,13.21
2022-12-09T21:33:52.328Z,13.24
2022-12-09T21:36:21.294Z,13.08
2022-12-09T21:38:48.033Z,12.90
2022-12-09T21:41:17.407Z,13.03
2022-12-09T21:43:44.815Z,13.09
2022-12-09T21:46:18.831Z,13.12
2022-12-09T21:48:51.811Z,13.00
2022-12-09T21:51:19.655Z,13.03
2022-12-09T21:53:47.603Z,13.14
2022-12-09T21:56:19.718Z,13.24
2022-12-09T21:58:48.360Z,13.19
2022-12-09T22:01:19.392Z,13.16
2022-12-09T22:03:47.380Z,13.05
2022-12-09T22:06:15.337Z,12.19
2022-12-09T22:08:42.948Z,12.59
2022-12-09T22:11:13.937Z,12.63
2022-12-09T22:13:40.724Z,12.73
2022-12-09T22:16:16.534Z,12.74
2022-12-09T22:18:44.200Z,12.72
2022-12-09T22:21:24.716Z,13.01
2022-12-09T22:23:57.126Z,13.20
2022-12-09T22:26:24.384Z,13.13
2022-12-09T22:28:51.786Z,13.24
2022-12-09T22:31:26.052Z,13.29
2022-12-09T22:33:55.153Z,13.33
2022-12-09T22:36:22.408Z,13.17
2022-12-09T22:38:49.054Z,13.31
2022-12-09T22:41:21.292Z,13.40
2022-12-09T22:43:49.732Z,13.28
2022-12-09T22:46:19.639Z,13.22
2022-12-09T22:48:46.703Z,12.92
2022-12-09T22:51:16.276Z,12.83
2022-12-09T22:53:43.388Z,12.71
2022-12-09T22:56:11.765Z,12.74
2022-12-09T22:58:38.491Z,12.70
2022-12-09T23:01:11.088Z,12.69
2022-12-09T23:03:38.385Z,12.72
2022-12-09T23:06:05.886Z,12.80
2022-12-09T23:08:33.061Z,13.02
2022-12-09T23:11:05.056Z,13.01
2022-12-09T23:13:36.221Z,12.79
2022-12-09T23:16:12.249Z,12.12
2022-12-09T23:18:39.526Z,11.72
2022-12-09T23:21:12.269Z,11.53
2022-12-09T23:23:39.830Z,11.45
2022-12-09T23:26:15.062Z,11.26
2022-12-09T23:28:47.117Z,10.75
2022-12-09T23:31:15.874Z,10.79
2022-12-09T23:33:45.201Z,10.44
2022-12-09T23:36:17.887Z,10.76
2022-12-09T23:38:45.373Z,10.62
2022-12-09T23:41:12.533Z,10.74
2022-12-09T23:43:39.352Z,10.65
2022-12-09T23:46:14.879Z,10.57
2022-12-09T23:48:42.731Z,10.58
2022-12-09T23:51:11.835Z,10.25
2022-12-09T23:53:39.027Z,10.45
2022-12-09T23:56:06.649Z,10.30
2022-12-09T23:58:34.581Z,10.32
